createdAt,value
2022-09-18T00:01:48.253Z,9.30
2022-09-18T00:04:16.632Z,9.30
2022-09-18T00:06:46.113Z,9.40
2022-09-18T00:09:17.049Z,9.40
2022-09-18T00:11:47.910Z,9.40
2022-09-18T00:14:24.427Z,9.40
2022-09-18T00:16:52.719Z,9.50
2022-09-18T00:19:22.206Z,9.50
2022-09-18T00:21:51.913Z,9.50
2022-09-18T00:24:23.352Z,9.50
2022-09-18T00:26:51.523Z,9.50
2022-09-18T00:29:19.962Z,9.60
2022-09-18T00:31:51.116Z,9.50
2022-09-18T00:34:19.432Z,9.60
2022-09-18T00:36:47.715Z,9.50
2022-09-18T00:39:16.268Z,9.60
2022-09-18T00:41:46.169Z,9.60
2022-09-18T00:44:42.399Z,9.60
2022-09-18T00:47:25.081Z,9.60
2022-09-18T00:50:00.545Z,9.60
2022-09-18T00:52:39.739Z,9.70
2022-09-18T00:55:11.337Z,9.70
2022-09-18T00:57:44.426Z,9.80
2022-09-18T01:00:16.148Z,9.70
2022-09-18T01:02:46.178Z,9.80
2022-09-18T01:05:18.074Z,9.80
2022-09-18T01:08:01.645Z,9.80
2022-09-18T01:10:41.246Z,9.80
2022-09-18T01:13:19.359Z,9.80
2022-09-18T01:15:53.563Z,9.80
2022-09-18T01:18:32.667Z,9.80
2022-09-18T01:21:15.594Z,9.80
2022-09-18T01:24:20.511Z,9.90
2022-09-18T01:26:55.837Z,9.80
2022-09-18T01:29:46.344Z,9.80
2022-09-18T01:32:26.625Z,9.90
2022-09-18T01:35:13.983Z,9.90
2022-09-18T01:37:56.088Z,9.90
2022-09-18T01:40:28.365Z,9.90
2022-09-18T01:43:00.299Z,9.90
2022-09-18T01:45:33.338Z,9.90
2022-09-18T01:48:04.447Z,9.90
2022-09-18T01:50:35.586Z,9.90
2022-09-18T01:53:08.051Z,10.00
2022-09-18T01:55:39.839Z,9.90
2022-09-18T01:58:11.250Z,9.90
2022-09-18T02:00:45.592Z,10.00
2022-09-18T02:03:17.285Z,10.00
2022-09-18T02:05:50.069Z,9.90
2022-09-18T02:08:23.012Z,10.00
2022-09-18T02:10:57.123Z,9.90
2022-09-18T02:13:29.895Z,10.00
2022-09-18T02:16:04.700Z,10.00
2022-09-18T02:18:41.009Z,10.00
2022-09-18T02:21:15.003Z,10.00
2022-09-18T02:23:44.873Z,10.00
2022-09-18T02:26:15.742Z,10.00
2022-09-18T02:28:45.875Z,9.90
2022-09-18T02:31:16.727Z,9.90
2022-09-18T02:33:45.021Z,9.80
2022-09-18T02:36:42.019Z,9.80
2022-09-18T02:39:26.976Z,9.80
2022-09-18T02:42:09.241Z,9.80
2022-09-18T02:44:44.546Z,9.80
2022-09-18T02:47:26.297Z,9.80
2022-09-18T02:50:04.455Z,9.70
2022-09-18T02:52:37.532Z,9.70
2022-09-18T02:55:11.599Z,9.80
2022-09-18T02:57:45.170Z,9.70
2022-09-18T03:00:18.784Z,9.80
2022-09-18T03:02:50.932Z,9.80
2022-09-18T03:05:19.493Z,9.80
2022-09-18T03:07:48.229Z,9.70
2022-09-18T03:10:16.739Z,9.60
2022-09-18T03:12:45.335Z,9.60
2022-09-18T03:15:13.683Z,9.50
2022-09-18T03:17:42.129Z,9.40
2022-09-18T03:20:13.079Z,9.50
2022-09-18T03:22:41.390Z,9.40
2022-09-18T03:25:12.591Z,9.30
2022-09-18T03:27:42.678Z,9.30
2022-09-18T03:30:11.959Z,9.30
2022-09-18T03:32:40.637Z,9.40
2022-09-18T03:35:09.828Z,9.30
2022-09-18T03:37:39.454Z,9.30
2022-09-18T03:40:09.491Z,9.30
2022-09-18T03:42:38.542Z,9.20
2022-09-18T03:45:08.030Z,9.20
2022-09-18T03:47:36.790Z,9.10
2022-09-18T03:50:06.693Z,9.10
2022-09-18T03:52:35.880Z,9.10
2022-09-18T03:55:06.228Z,9.20
2022-09-18T03:57:37.371Z,9.20
2022-09-18T04:00:07.398Z,9.20
2022-09-18T04:02:35.655Z,9.20
2022-09-18T04:05:04.389Z,9.10
2022-09-18T04:07:33.328Z,9.10
2022-09-18T04:10:01.613Z,9.20
2022-09-18T04:12:31.220Z,9.20
2022-09-18T04:14:59.566Z,9.20
2022-09-18T04:17:27.945Z,9.20
2022-09-18T04:19:59.400Z,9.20
2022-09-18T04:22:30.334Z,9.20
2022-09-18T04:24:58.567Z,9.20
2022-09-18T04:27:26.838Z,9.20
2022-09-18T04:29:56.518Z,9.30
2022-09-18T04:32:24.816Z,9.20
2022-09-18T04:34:53.033Z,9.20
2022-09-18T04:37:21.300Z,9.30
2022-09-18T04:39:49.521Z,9.30
2022-09-18T04:42:18.179Z,9.30
2022-09-18T04:44:47.294Z,9.30
2022-09-18T04:47:16.864Z,9.30
2022-09-18T04:49:45.025Z,9.40
2022-09-18T04:52:13.341Z,9.40
2022-09-18T04:54:41.681Z,9.40
2022-09-18T04:57:09.881Z,9.40
2022-09-18T04:59:38.170Z,9.40
2022-09-18T05:02:06.998Z,9.40
2022-09-18T05:04:37.530Z,9.40
2022-09-18T05:07:06.920Z,9.40
2022-09-18T05:09:35.142Z,9.40
2022-09-18T05:12:03.929Z,9.40
2022-09-18T05:14:32.134Z,9.40
2022-09-18T05:17:00.764Z,9.40
2022-09-18T05:19:29.368Z,9.50
2022-09-18T05:21:58.866Z,9.50
2022-09-18T05:24:27.135Z,9.50
2022-09-18T05:26:55.621Z,9.60
2022-09-18T05:29:23.995Z,9.60
2022-09-18T05:31:52.814Z,9.60
2022-09-18T05:34:21.061Z,9.50
2022-09-18T05:36:49.169Z,9.60
2022-09-18T05:39:18.847Z,9.50
2022-09-18T05:41:51.158Z,9.50
2022-09-18T05:44:19.943Z,9.60
2022-09-18T05:46:48.526Z,9.60
2022-09-18T05:49:17.056Z,9.60
2022-09-18T05:51:46.479Z,9.60
2022-09-18T05:54:14.990Z,9.70
2022-09-18T05:56:44.654Z,9.50
2022-09-18T05:59:12.928Z,9.60
2022-09-18T06:01:46.314Z,9.80
2022-09-18T06:04:15.298Z,9.80
2022-09-18T06:06:43.535Z,9.90
2022-09-18T06:09:11.771Z,9.90
2022-09-18T06:11:39.933Z,10.00
2022-09-18T06:14:09.661Z,10.00
2022-09-18T06:16:42.139Z,10.10
2022-09-18T06:19:10.700Z,10.10
2022-09-18T06:21:38.866Z,10.20
2022-09-18T06:24:07.523Z,10.20
2022-09-18T06:26:36.079Z,10.20
2022-09-18T06:29:04.780Z,10.20
2022-09-18T06:31:34.433Z,10.20
2022-09-18T06:34:02.979Z,10.30
2022-09-18T06:36:31.155Z,10.30
2022-09-18T06:38:59.404Z,10.20
2022-09-18T06:41:27.576Z,10.30
2022-09-18T06:43:56.203Z,10.30
2022-09-18T06:46:24.754Z,10.30
2022-09-18T06:48:57.465Z,10.30
2022-09-18T06:51:25.630Z,10.30
2022-09-18T06:53:53.840Z,10.20
2022-09-18T06:56:22.466Z,10.30
2022-09-18T06:58:53.314Z,10.20
2022-09-18T07:01:21.631Z,10.20
2022-09-18T07:03:50.178Z,10.20
2022-09-18T07:06:20.175Z,10.20
2022-09-18T07:08:48.329Z,10.20
2022-09-18T07:11:16.644Z,10.10
2022-09-18T07:13:45.202Z,10.10
2022-09-18T07:16:16.834Z,10.10
2022-09-18T07:18:46.710Z,10.00
2022-09-18T07:21:14.989Z,9.90
2022-09-18T07:23:44.617Z,10.00
2022-09-18T07:26:12.931Z,10.00
2022-09-18T07:28:41.793Z,10.10
2022-09-18T07:31:13.644Z,10.00
2022-09-18T07:33:42.229Z,10.00
2022-09-18T07:36:10.417Z,9.90
2022-09-18T07:38:45.319Z,10.00
2022-09-18T07:41:14.893Z,9.90
2022-09-18T07:43:43.121Z,10.00
2022-09-18T07:46:11.998Z,9.90
2022-09-18T07:48:40.371Z,9.80
2022-09-18T07:51:08.859Z,9.80
2022-09-18T07:53:37.567Z,9.80
2022-09-18T07:56:09.067Z,9.90
2022-09-18T07:58:39.012Z,9.80
2022-09-18T08:01:08.463Z,9.80
2022-09-18T08:03:41.232Z,9.90
2022-09-18T08:06:10.279Z,9.90
2022-09-18T08:08:38.487Z,9.90
2022-09-18T08:11:07.114Z,9.90
2022-09-18T08:13:35.287Z,9.90
2022-09-18T08:16:06.300Z,9.80
2022-09-18T08:18:36.198Z,9.90
2022-09-18T08:21:10.352Z,10.10
2022-09-18T08:23:39.139Z,10.10
2022-09-18T08:26:08.643Z,10.20
2022-09-18T08:28:36.877Z,10.20
2022-09-18T08:31:07.196Z,10.20
2022-09-18T08:33:35.764Z,10.20
2022-09-18T08:36:04.766Z,10.20
2022-09-18T08:38:46.974Z,10.20
2022-09-18T08:41:38.753Z,10.20
2022-09-18T08:44:11.539Z,10.40
2022-09-18T08:46:44.789Z,10.60
2022-09-18T08:49:24.451Z,10.70
2022-09-18T08:52:03.676Z,10.90
2022-09-18T08:54:44.966Z,10.90
2022-09-18T08:57:17.558Z,11.00
2022-09-18T08:59:50.332Z,11.00
2022-09-18T09:02:33.599Z,10.90
2022-09-18T09:05:07.374Z,10.80
2022-09-18T09:07:58.731Z,10.80
2022-09-18T09:10:41.567Z,10.80
2022-09-18T09:13:52.718Z,10.70
2022-09-18T09:16:31.179Z,10.70
2022-09-18T09:19:02.861Z,10.60
2022-09-18T09:21:48.261Z,10.60
2022-09-18T09:24:29.105Z,10.60
2022-09-18T09:26:58.112Z,10.60
2022-09-18T09:29:30.129Z,10.70
2022-09-18T09:32:04.807Z,10.80
2022-09-18T09:34:40.841Z,10.90
2022-09-18T09:37:18.204Z,10.90
2022-09-18T09:39:53.889Z,11.00
2022-09-18T09:42:27.943Z,11.00
2022-09-18T09:45:03.194Z,10.90
2022-09-18T09:51:00.001Z,10.90
2022-09-18T09:53:29.174Z,10.90
2022-09-18T09:56:06.491Z,10.80
2022-09-18T09:58:46.458Z,10.90
2022-09-18T10:01:23.114Z,11.00
2022-09-18T10:04:02.382Z,11.00
2022-09-18T10:06:44.422Z,11.00
2022-09-18T10:09:20.795Z,11.00
2022-09-18T10:11:57.569Z,10.80
2022-09-18T10:14:29.123Z,10.60
2022-09-18T10:16:59.189Z,10.60
2022-09-18T10:19:34.793Z,10.70
2022-09-18T10:22:07.539Z,10.70
2022-09-18T10:24:49.492Z,10.60
2022-09-18T10:27:19.053Z,10.70
2022-09-18T10:29:47.425Z,10.60
2022-09-18T10:32:33.760Z,10.60
2022-09-18T10:35:02.344Z,10.60
2022-09-18T10:37:42.193Z,10.60
2022-09-18T10:40:30.441Z,10.60
2022-09-18T10:43:00.552Z,10.70
2022-09-18T10:45:31.041Z,10.80
2022-09-18T10:48:15.398Z,10.70
2022-09-18T10:50:54.084Z,10.60
2022-09-18T10:53:34.304Z,10.70
2022-09-18T10:56:07.009Z,10.70
2022-09-18T10:58:36.233Z,10.60
2022-09-18T11:01:07.938Z,10.60
2022-09-18T11:03:41.536Z,10.50
2022-09-18T11:06:18.284Z,10.50
2022-09-18T11:08:50.877Z,10.50
2022-09-18T11:11:26.279Z,10.50
2022-09-18T11:14:01.331Z,10.60
2022-09-18T11:16:32.390Z,10.50
2022-09-18T11:19:14.702Z,10.50
2022-09-18T11:21:46.768Z,10.60
2022-09-18T11:24:26.263Z,10.60
2022-09-18T11:26:56.838Z,10.60
2022-09-18T11:29:31.173Z,10.70
2022-09-18T11:32:13.957Z,10.60
2022-09-18T11:34:49.874Z,10.60
2022-09-18T11:37:28.934Z,10.60
2022-09-18T11:40:04.372Z,10.60
2022-09-18T11:42:33.349Z,10.70
2022-09-18T11:45:27.978Z,10.70
2022-09-18T11:48:04.221Z,10.60
2022-09-18T11:50:35.137Z,10.70
2022-09-18T11:53:15.921Z,10.60
2022-09-18T11:55:51.555Z,10.60
2022-09-18T11:58:24.191Z,10.60
2022-09-18T12:01:05.338Z,10.50
2022-09-18T12:03:40.716Z,10.60
2022-09-18T12:06:14.095Z,10.50
2022-09-18T12:08:49.133Z,10.50
2022-09-18T12:11:26.425Z,10.50
2022-09-18T12:14:02.330Z,10.50
2022-09-18T12:16:47.683Z,10.50
2022-09-18T12:19:21.095Z,10.50
2022-09-18T12:21:56.025Z,10.40
2022-09-18T12:24:24.771Z,10.40
2022-09-18T12:27:13.115Z,10.40
2022-09-18T12:30:13.152Z,10.40
2022-09-18T12:33:13.499Z,10.40
2022-09-18T12:36:17.236Z,10.30
2022-09-18T12:39:01.145Z,10.30
2022-09-18T12:41:44.313Z,10.40
2022-09-18T12:44:34.423Z,10.40
2022-09-18T12:47:18.889Z,10.30
2022-09-18T12:50:14.877Z,10.30
2022-09-18T12:53:09.091Z,10.30
2022-09-18T12:55:57.714Z,10.30
2022-09-18T12:59:04.805Z,10.30
2022-09-18T13:01:41.877Z,10.40
2022-09-18T13:04:41.413Z,10.40
2022-09-18T13:07:15.798Z,10.40
2022-09-18T13:09:51.672Z,10.40
2022-09-18T13:12:25.988Z,10.40
2022-09-18T13:14:59.549Z,10.40
2022-09-18T13:17:37.791Z,10.40
2022-09-18T13:20:15.816Z,10.40
2022-09-18T13:22:53.895Z,10.30
2022-09-18T13:25:32.868Z,10.30
2022-09-18T13:28:05.007Z,9.90
2022-09-18T13:30:33.965Z,9.80
2022-09-18T13:33:06.886Z,9.70
2022-09-18T13:35:39.568Z,9.80
2022-09-18T13:38:17.807Z,10.00
2022-09-18T13:40:49.081Z,10.00
2022-09-18T13:43:39.702Z,10.10
2022-09-18T13:46:10.503Z,10.20
2022-09-18T13:48:46.911Z,10.30
2022-09-18T13:51:22.587Z,10.30
2022-09-18T13:54:17.911Z,10.30
2022-09-18T13:57:19.906Z,10.20
2022-09-18T13:59:56.238Z,10.10
2022-09-18T14:02:30.169Z,10.00
2022-09-18T14:05:06.595Z,9.80
2022-09-18T14:08:04.496Z,9.30
2022-09-18T14:10:37.536Z,9.10
2022-09-18T14:13:21.979Z,9.00
2022-09-18T14:15:56.676Z,9.10
2022-09-18T14:18:28.264Z,9.20
2022-09-18T14:21:13.950Z,9.20
2022-09-18T14:24:25.236Z,9.30
2022-09-18T14:27:00.032Z,9.10
2022-09-18T14:29:43.854Z,9.00
2022-09-18T14:32:28.734Z,9.00
2022-09-18T14:35:44.335Z,9.00
2022-09-18T14:58:01.211Z,9.40
2022-09-18T15:00:34.517Z,9.60
2022-09-18T15:03:06.132Z,9.70
2022-09-18T15:05:35.151Z,9.80
2022-09-18T15:08:05.673Z,9.80
2022-09-18T15:10:38.198Z,9.80
2022-09-18T15:13:10.416Z,9.80
2022-09-18T15:15:43.154Z,9.80
2022-09-18T15:18:23.548Z,9.90
2022-09-18T15:20:53.080Z,9.80
2022-09-18T15:23:25.820Z,9.90
2022-09-18T15:25:58.891Z,9.80
2022-09-18T15:28:29.031Z,9.90
2022-09-18T15:31:03.780Z,9.90
2022-09-18T15:33:34.207Z,9.80
2022-09-18T15:36:04.897Z,9.80
2022-09-18T15:38:41.884Z,9.90
2022-09-18T15:41:24.901Z,9.80
2022-09-18T15:43:53.601Z,9.90
2022-09-18T15:46:28.723Z,9.90
2022-09-18T15:49:00.481Z,9.80
2022-09-18T15:51:30.186Z,9.90
2022-09-18T15:54:09.643Z,9.90
2022-09-18T15:56:51.321Z,9.90
2022-09-18T15:59:26.076Z,9.90
2022-09-18T16:01:56.113Z,9.80
2022-09-18T16:04:27.080Z,9.80
2022-09-18T16:07:03.713Z,9.70
2022-09-18T16:09:40.216Z,9.80
2022-09-18T16:12:38.240Z,9.80
2022-09-18T16:15:18.667Z,9.80
2022-09-18T16:18:23.280Z,9.70
2022-09-18T16:21:12.276Z,9.70
2022-09-18T16:23:50.489Z,9.80
2022-09-18T16:26:29.313Z,9.80
2022-09-18T16:29:01.621Z,9.80
2022-09-18T16:31:35.168Z,9.80
2022-09-18T16:34:06.869Z,9.80
2022-09-18T16:36:39.559Z,9.80
2022-09-18T16:39:09.361Z,9.80
2022-09-18T16:41:38.388Z,9.70
2022-09-18T16:44:11.593Z,9.70
2022-09-18T16:46:46.462Z,9.80
2022-09-18T16:49:19.872Z,9.90
2022-09-18T16:51:48.062Z,9.80
2022-09-18T16:54:16.392Z,9.80
2022-09-18T16:56:51.958Z,9.80
2022-09-18T16:59:21.839Z,9.80
2022-09-18T17:02:03.286Z,9.80
2022-09-18T17:04:34.730Z,9.80
2022-09-18T17:07:03.983Z,9.70
2022-09-18T17:09:32.716Z,9.70
2022-09-18T17:12:02.775Z,9.70
2022-09-18T17:14:31.132Z,9.60
2022-09-18T17:16:59.360Z,9.50
2022-09-18T17:19:28.425Z,9.50
2022-09-18T17:21:58.113Z,9.50
2022-09-18T17:24:28.011Z,9.50
2022-09-18T17:26:56.358Z,9.40
2022-09-18T17:29:24.656Z,9.40
2022-09-18T17:31:53.348Z,9.40
2022-09-18T17:34:22.202Z,9.40
2022-09-18T17:36:50.830Z,9.40
2022-09-18T17:39:20.484Z,9.40
2022-09-18T17:41:50.145Z,9.40
2022-09-18T17:44:19.875Z,9.40
2022-09-18T17:46:51.520Z,9.40
2022-09-18T17:49:20.356Z,9.30
2022-09-18T17:51:49.166Z,9.30
2022-09-18T17:54:20.711Z,9.30
2022-09-18T17:56:49.189Z,9.40
2022-09-18T17:59:18.416Z,9.40
2022-09-18T18:01:48.731Z,9.40
2022-09-18T18:04:17.878Z,9.30
2022-09-18T18:06:48.367Z,9.40
2022-09-18T18:09:17.147Z,9.40
2022-09-18T18:11:48.249Z,9.40
2022-09-18T18:14:24.715Z,9.40
2022-09-18T18:17:00.000Z,9.40
2022-09-18T18:19:29.028Z,9.50
2022-09-18T18:21:57.981Z,9.50
2022-09-18T18:24:26.848Z,9.50
2022-09-18T18:27:13.873Z,9.50
2022-09-18T18:29:42.368Z,9.50
2022-09-18T18:32:10.996Z,9.50
2022-09-18T18:34:39.640Z,9.40
2022-09-18T18:37:07.858Z,9.40
2022-09-18T18:39:36.167Z,9.30
2022-09-18T18:42:07.183Z,9.30
2022-09-18T18:44:44.484Z,9.30
2022-09-18T18:47:14.849Z,9.20
2022-09-18T18:49:44.753Z,9.20
2022-09-18T18:52:20.298Z,9.30
2022-09-18T18:54:51.165Z,9.30
2022-09-18T18:57:19.543Z,9.30
2022-09-18T18:59:52.529Z,9.20
2022-09-18T19:02:36.687Z,9.30
2022-09-18T19:05:10.551Z,9.20
2022-09-18T19:08:01.788Z,9.20
2022-09-18T19:10:30.034Z,9.20
2022-09-18T19:13:05.029Z,9.20
2022-09-18T19:15:38.589Z,9.20
2022-09-18T19:18:13.361Z,9.20
2022-09-18T19:20:42.960Z,9.20
2022-09-18T19:23:22.763Z,9.20
2022-09-18T19:25:52.600Z,9.10
2022-09-18T19:28:21.186Z,9.10
2022-09-18T19:30:55.715Z,9.10
2022-09-18T19:33:33.390Z,9.10
2022-09-18T19:36:06.881Z,9.00
2022-09-18T19:38:40.172Z,9.00
2022-09-18T19:41:15.973Z,9.00
2022-09-18T19:43:45.615Z,9.00
2022-09-18T19:46:20.998Z,9.00
2022-09-18T19:48:49.270Z,9.10
2022-09-18T19:51:20.616Z,9.00
